Time;durP1;ratioP1;P1;durP2;ratioP2;P2;SDS_P1;SDS_P2;PMS_P1;PMS_P2;Temp;Humidity;BMP_temperature;BMP_pressure;BME280_temperature;BME280_humidity;BME280_pressure;Samples;Min_cycle;Max_cycle;Signal;HPM_P1;HPM_P2
2022/05/18 00:01:09;;;;;;;7.82;3.38;;;17.90;99.90;;;;;;5051399;28;20047;-64
2022/05/18 00:03:38;;;;;;;5.45;3.70;;;17.90;99.90;;;;;;5035385;28;20045;-64
2022/05/18 00:06:05;;;;;;;8.82;4.50;;;17.80;99.90;;;;;;5035757;28;20647;-64
2022/05/18 00:08:35;;;;;;;9.02;3.58;;;17.80;99.90;;;;;;5036836;28;20041;-64
2022/05/18 00:11:07;;;;;;;8.27;4.50;;;17.80;99.90;;;;;;5040378;28;20045;-64
2022/05/18 00:13:33;;;;;;;9.40;4.03;;;17.80;99.90;;;;;;5067607;28;20040;-64
2022/05/18 00:15:58;;;;;;;4.75;3.80;;;17.80;99.90;;;;;;5036801;28;21484;-64
2022/05/18 00:18:24;;;;;;;4.90;3.95;;;17.80;99.90;;;;;;5037135;28;20056;-64
2022/05/18 00:20:50;;;;;;;9.70;4.32;;;17.80;99.90;;;;;;5065389;28;20055;-64
2022/05/18 00:23:15;;;;;;;6.85;4.18;;;17.80;99.90;;;;;;5039721;28;20655;-64
2022/05/18 00:25:41;;;;;;;12.25;4.40;;;17.80;99.90;;;;;;5035211;28;20044;-64
2022/05/18 00:28:08;;;;;;;8.45;4.32;;;17.80;99.90;;;;;;5036133;28;20037;-64
2022/05/18 00:30:38;;;;;;;7.63;3.97;;;17.80;99.90;;;;;;5036882;28;20690;-64
2022/05/18 00:33:05;;;;;;;12.32;4.55;;;17.70;99.90;;;;;;5065774;28;20131;-64
2022/05/18 00:35:32;;;;;;;5.75;4.00;;;17.70;99.90;;;;;;5037265;28;20489;-64
2022/05/18 00:37:59;;;;;;;6.63;4.22;;;17.70;99.90;;;;;;5038087;28;20044;-64
2022/05/18 00:40:24;;;;;;;6.78;4.00;;;17.70;99.90;;;;;;5037730;28;20585;-64
2022/05/18 00:42:50;;;;;;;8.57;4.40;;;17.70;99.90;;;;;;5041528;28;20047;-64
2022/05/18 00:45:16;;;;;;;8.15;3.88;;;17.60;99.90;;;;;;5017830;28;20041;-64
2022/05/18 00:47:42;;;;;;;6.50;4.00;;;17.60;99.90;;;;;;5032969;28;20049;-64
2022/05/18 00:50:19;;;;;;;6.70;4.05;;;17.60;99.90;;;;;;5038069;28;20475;-64
2022/05/18 00:53:21;;;;;;;6.50;3.50;;;17.60;99.90;;;;;;5065856;28;20479;-64
2022/05/18 00:55:53;;;;;;;6.60;4.03;;;17.50;99.90;;;;;;5028433;28;20498;-64
2022/05/18 00:58:27;;;;;;;6.13;4.25;;;17.50;99.90;;;;;;5034020;28;20051;-64
2022/05/18 01:00:52;;;;;;;9.10;4.03;;;17.50;99.90;;;;;;5037025;28;20047;-64
2022/05/18 01:03:25;;;;;;;5.57;3.85;;;17.40;99.90;;;;;;5038965;28;20751;-64
2022/05/18 01:06:13;;;;;;;10.43;5.05;;;17.40;99.90;;;;;;5035633;28;20072;-64
2022/05/18 01:08:50;;;;;;;9.93;4.55;;;17.30;99.90;;;;;;5034981;28;20033;-64
2022/05/18 01:11:17;;;;;;;9.48;4.65;;;17.30;99.90;;;;;;5036242;28;20632;-64
2022/05/18 01:13:43;;;;;;;6.30;4.32;;;17.30;99.90;;;;;;5035325;28;20044;-64
2022/05/18 01:16:09;;;;;;;7.95;3.83;;;17.30;99.90;;;;;;5037476;28;20047;-64
2022/05/18 01:18:35;;;;;;;7.32;4.28;;;17.30;99.90;;;;;;5037584;28;20120;-64
2022/05/18 01:21:00;;;;;;;6.90;3.58;;;17.30;99.90;;;;;;5033871;28;20052;-64
2022/05/18 01:23:40;;;;;;;5.85;4.60;;;17.20;99.90;;;;;;5036117;28;20087;-64
2022/05/18 01:26:10;;;;;;;7.53;3.85;;;17.20;99.90;;;;;;5036301;28;21671;-64
2022/05/18 01:28:40;;;;;;;5.75;3.75;;;17.10;99.90;;;;;;5036564;28;20042;-64
2022/05/18 01:31:06;;;;;;;14.77;4.72;;;17.10;99.90;;;;;;5035035;28;20118;-64
2022/05/18 01:33:33;;;;;;;8.52;4.32;;;17.10;99.90;;;;;;5036174;28;20049;-64
2022/05/18 01:35:59;;;;;;;9.68;3.60;;;17.00;99.90;;;;;;5032971;28;20049;-64
2022/05/18 01:38:25;;;;;;;10.45;4.03;;;17.10;99.90;;;;;;5035047;28;20046;-64
2022/05/18 01:40:50;;;;;;;6.32;3.88;;;17.10;99.90;;;;;;5036192;28;20044;-64
2022/05/18 01:43:24;;;;;;;7.38;3.45;;;17.00;99.90;;;;;;5038888;28;20132;-64
2022/05/18 01:45:52;;;;;;;7.93;4.10;;;17.10;99.90;;;;;;5035989;28;20065;-64
2022/05/18 01:48:22;;;;;;;9.25;4.30;;;17.10;99.90;;;;;;5064583;28;20487;-64
2022/05/18 01:50:49;;;;;;;7.78;4.05;;;17.00;99.90;;;;;;5034124;28;20036;-64
2022/05/18 01:53:14;;;;;;;6.38;3.75;;;17.00;99.90;;;;;;5036288;28;20151;-64
2022/05/18 01:55:40;;;;;;;5.30;3.95;;;17.00;99.90;;;;;;5035626;28;20511;-64
2022/05/18 01:58:08;;;;;;;5.43;3.90;;;17.00;99.90;;;;;;5034783;28;20055;-64
2022/05/18 02:00:34;;;;;;;7.10;4.60;;;16.90;99.90;;;;;;5064275;28;20578;-64
2022/05/18 02:02:59;;;;;;;5.45;4.13;;;16.90;99.90;;;;;;5033456;28;20060;-64
2022/05/18 02:05:26;;;;;;;5.07;3.55;;;16.90;99.90;;;;;;5037812;28;20056;-64
2022/05/18 02:07:52;;;;;;;7.70;3.92;;;16.90;99.90;;;;;;5033181;28;20466;-64
2022/05/18 02:10:17;;;;;;;8.50;3.85;;;16.90;99.90;;;;;;5052126;28;20040;-64
2022/05/18 02:12:43;;;;;;;7.20;4.43;;;16.80;99.90;;;;;;5035111;28;20131;-64
2022/05/18 02:15:09;;;;;;;7.15;3.65;;;16.80;99.90;;;;;;5034850;28;20127;-64
2022/05/18 02:17:37;;;;;;;9.10;4.97;;;16.80;99.90;;;;;;5033990;28;20044;-64
2022/05/18 02:20:03;;;;;;;9.07;4.53;;;16.70;99.90;;;;;;5033763;28;20045;-64
2022/05/18 02:22:29;;;;;;;7.78;4.25;;;16.80;99.90;;;;;;5038905;28;20048;-64
2022/05/18 02:24:55;;;;;;;6.88;3.92;;;16.70;99.90;;;;;;5046863;28;20597;-64
2022/05/18 02:27:20;;;;;;;5.88;4.07;;;16.70;99.90;;;;;;5032990;28;20075;-64
2022/05/18 02:29:46;;;;;;;6.13;3.85;;;16.70;99.90;;;;;;5032719;28;20543;-64
2022/05/18 02:32:12;;;;;;;4.85;3.67;;;16.70;99.90;;;;;;5035978;28;20041;-64
2022/05/18 02:34:37;;;;;;;7.43;4.47;;;16.70;99.90;;;;;;5037412;28;20036;-64
2022/05/18 02:37:04;;;;;;;8.20;4.40;;;16.60;99.90;;;;;;5033095;28;20045;-64
2022/05/18 02:39:29;;;;;;;7.28;4.28;;;16.50;99.90;;;;;;5068621;28;20091;-64
2022/05/18 02:41:56;;;;;;;6.35;4.35;;;16.50;99.90;;;;;;5038049;28;20048;-64
2022/05/18 02:44:22;;;;;;;6.20;4.05;;;16.50;99.90;;;;;;5068505;28;20040;-64
2022/05/18 02:46:47;;;;;;;5.25;4.63;;;16.50;99.90;;;;;;5038658;28;20649;-64
2022/05/18 02:49:15;;;;;;;8.40;3.80;;;16.70;99.90;;;;;;5066979;28;20764;-64
2022/05/18 02:51:41;;;;;;;10.60;4.45;;;16.40;99.90;;;;;;5039198;28;20088;-64
2022/05/18 02:56:05;;;;;;;7.45;3.92;;;16.40;99.90;;;;;;5039664;28;20040;-64
2022/05/18 02:56:54;;;;;;;9.40;4.45;;;16.30;99.90;;;;;;5037590;28;20175;-64
2022/05/18 02:59:21;;;;;;;9.40;4.38;;;16.30;99.90;;;;;;5038551;28;20049;-64
2022/05/18 03:01:47;;;;;;;7.00;4.65;;;16.20;99.90;;;;;;5063933;28;21642;-64
2022/05/18 03:04:14;;;;;;;8.20;4.93;;;16.40;99.90;;;;;;5035857;28;20045;-64
2022/05/18 03:06:40;;;;;;;7.90;4.72;;;16.20;99.90;;;;;;5035864;28;20573;-64
2022/05/18 03:09:06;;;;;;;9.32;4.78;;;16.10;99.90;;;;;;5039853;28;20171;-64
2022/05/18 03:11:31;;;;;;;8.60;5.10;;;16.10;99.90;;;;;;5039808;28;20041;-64
2022/05/18 03:13:57;;;;;;;8.05;4.28;;;16.10;99.90;;;;;;5037240;28;20045;-64
2022/05/18 03:16:26;;;;;;;8.23;5.07;;;16.00;99.90;;;;;;5036623;28;20185;-64
2022/05/18 03:18:52;;;;;;;7.63;4.68;;;16.00;99.90;;;;;;5039770;28;20549;-64
2022/05/18 03:24:02;;;;;;;7.88;4.57;;;16.00;99.90;;;;;;5038615;28;20167;-64
2022/05/18 03:26:28;;;;;;;9.38;5.43;;;16.00;99.90;;;;;;5040186;28;20046;-64
2022/05/18 03:28:55;;;;;;;8.18;4.88;;;15.90;99.90;;;;;;5063597;28;20049;-64
2022/05/18 03:31:21;;;;;;;5.82;4.57;;;15.90;99.90;;;;;;5065442;28;20045;-64
2022/05/18 03:33:47;;;;;;;7.60;4.88;;;15.80;99.90;;;;;;5039995;28;20032;-64
2022/05/18 03:36:15;;;;;;;10.68;4.97;;;15.80;99.90;;;;;;5039623;28;20051;-64
2022/05/18 03:38:43;;;;;;;7.13;5.35;;;15.80;99.90;;;;;;5039070;28;20076;-64
2022/05/18 03:41:09;;;;;;;9.48;5.88;;;15.80;99.90;;;;;;5021823;28;20055;-64
2022/05/18 03:43:35;;;;;;;8.65;6.03;;;15.70;99.90;;;;;;5034169;28;20049;-64
2022/05/18 03:46:02;;;;;;;10.40;5.15;;;15.70;99.90;;;;;;5038045;28;20044;-64
2022/05/18 03:48:29;;;;;;;8.63;5.60;;;15.70;99.90;;;;;;5035888;28;20040;-64
2022/05/18 03:50:57;;;;;;;5.75;5.03;;;15.70;99.90;;;;;;5038628;28;20052;-64
2022/05/18 03:53:24;;;;;;;7.65;5.55;;;15.70;99.90;;;;;;5039863;28;20047;-64
2022/05/18 03:55:50;;;;;;;6.95;4.63;;;15.70;99.90;;;;;;5037623;28;20056;-64
2022/05/18 03:58:16;;;;;;;7.40;4.93;;;15.70;99.90;;;;;;5036578;28;20040;-64
2022/05/18 04:00:44;;;;;;;7.68;5.07;;;15.70;99.90;;;;;;5037391;28;20105;-64
2022/05/18 04:03:11;;;;;;;7.80;6.35;;;15.70;99.90;;;;;;5040900;28;20052;-64
2022/05/18 04:05:38;;;;;;;10.80;5.03;;;15.70;99.90;;;;;;5034292;28;20050;-64
2022/05/18 04:08:05;;;;;;;10.35;4.93;;;15.70;99.90;;;;;;5039192;28;21782;-64
2022/05/18 04:10:32;;;;;;;6.45;4.90;;;15.80;99.90;;;;;;5036213;28;20052;-64
2022/05/18 04:12:58;;;;;;;6.78;5.15;;;15.90;99.90;;;;;;5039929;28;20037;-64
2022/05/18 04:15:24;;;;;;;9.52;4.85;;;16.00;99.90;;;;;;5064948;28;20053;-64
2022/05/18 04:17:49;;;;;;;5.78;4.80;;;16.10;99.90;;;;;;5038220;28;20403;-64
2022/05/18 04:20:18;;;;;;;9.35;5.32;;;16.30;99.90;;;;;;5036756;28;20120;-64
2022/05/18 04:22:45;;;;;;;10.52;5.00;;;16.40;99.90;;;;;;5064853;28;20044;-64
2022/05/18 04:25:14;;;;;;;9.23;4.68;;;16.50;99.90;;;;;;5036542;28;20068;-64
2022/05/18 04:27:40;;;;;;;5.78;4.30;;;16.70;99.90;;;;;;5037262;28;20051;-64
2022/05/18 04:30:07;;;;;;;10.93;4.68;;;16.80;99.90;;;;;;5037146;28;20045;-64
2022/05/18 04:32:33;;;;;;;7.53;4.82;;;17.00;99.90;;;;;;5063243;28;20041;-64
2022/05/18 04:34:59;;;;;;;9.40;4.32;;;17.10;99.90;;;;;;5036162;28;20149;-64
2022/05/18 04:37:24;;;;;;;6.70;4.95;;;17.20;99.90;;;;;;5036972;28;20227;-64
2022/05/18 04:39:50;;;;;;;8.65;4.68;;;17.20;99.90;;;;;;5036849;28;20075;-64
2022/05/18 04:42:16;;;;;;;9.18;5.20;;;17.30;99.90;;;;;;5032909;28;20043;-64
2022/05/18 04:44:42;;;;;;;8.88;5.10;;;17.30;99.90;;;;;;5034784;28;20080;-64
2022/05/18 04:47:08;;;;;;;6.70;4.95;;;17.40;99.90;;;;;;5034417;28;20521;-64
2022/05/18 04:49:34;;;;;;;6.80;5.20;;;17.50;99.90;;;;;;5035646;28;20029;-64
2022/05/18 04:52:01;;;;;;;8.57;5.47;;;17.50;99.90;;;;;;5033390;28;20040;-64
2022/05/18 04:54:27;;;;;;;6.63;4.75;;;17.60;99.90;;;;;;5064540;28;20102;-64
2022/05/18 04:56:53;;;;;;;7.75;5.10;;;17.80;99.90;;;;;;5037207;28;20044;-64
2022/05/18 04:59:18;;;;;;;9.25;5.20;;;17.80;99.90;;;;;;5063804;28;20049;-64
2022/05/18 05:01:44;;;;;;;7.43;5.20;;;17.90;99.90;;;;;;5035533;28;20748;-64
2022/05/18 05:04:13;;;;;;;12.27;5.22;;;17.90;99.90;;;;;;5034030;28;20045;-64
2022/05/18 05:06:46;;;;;;;9.45;5.13;;;18.00;99.90;;;;;;5033015;28;20053;-64
2022/05/18 05:09:12;;;;;;;9.82;5.78;;;18.10;99.90;;;;;;5035565;28;20060;-64
2022/05/18 05:11:38;;;;;;;6.85;4.80;;;18.40;99.90;;;;;;5035484;28;20171;-64
2022/05/18 05:14:05;;;;;;;4.55;4.13;;;19.20;99.90;;;;;;5035130;28;20048;-64
2022/05/18 05:16:32;;;;;;;7.20;4.22;;;20.40;99.90;;;;;;5048825;28;20176;-64
2022/05/18 05:18:58;;;;;;;7.22;4.53;;;21.70;99.90;;;;;;5036177;28;20122;-64
2022/05/18 05:21:23;;;;;;;9.68;4.85;;;22.90;99.90;;;;;;5033523;28;20095;-64
2022/05/18 05:23:49;;;;;;;5.95;4.68;;;23.90;99.90;;;;;;5021716;28;20052;-64
2022/05/18 05:26:15;;;;;;;10.90;5.15;;;24.70;99.90;;;;;;5035096;28;20140;-64
2022/05/18 05:28:41;;;;;;;6.80;4.93;;;25.10;99.90;;;;;;5036355;28;20463;-65
2022/05/18 05:31:09;;;;;;;6.78;5.25;;;25.40;99.10;;;;;;5066391;28;20049;-64
2022/05/18 05:33:36;;;;;;;6.60;4.53;;;25.40;98.00;;;;;;5007250;28;20041;-65
2022/05/18 05:36:02;;;;;;;6.70;4.80;;;25.10;97.60;;;;;;5035738;28;21037;-65
2022/05/18 05:38:28;;;;;;;6.97;4.57;;;24.60;98.90;;;;;;5039085;28;20044;-65
2022/05/18 05:40:55;;;;;;;6.38;4.38;;;24.40;99.20;;;;;;5036159;28;20536;-65
2022/05/18 05:43:20;;;;;;;8.82;5.72;;;24.10;99.10;;;;;;5037929;28;20127;-65
2022/05/18 05:45:59;;;;;;;8.07;4.85;;;23.80;99.80;;;;;;5034716;28;20044;-65
2022/05/18 05:48:25;;;;;;;8.65;5.65;;;23.70;99.90;;;;;;5041228;28;20044;-65
2022/05/18 05:50:50;;;;;;;9.48;5.40;;;23.40;99.90;;;;;;5034353;28;20041;-64
2022/05/18 05:53:16;;;;;;;8.70;5.13;;;23.40;99.90;;;;;;5035373;28;20597;-64
2022/05/18 05:55:42;;;;;;;9.00;5.97;;;23.20;99.90;;;;;;5036957;28;20055;-64
2022/05/18 05:58:08;;;;;;;12.45;5.93;;;23.10;99.90;;;;;;5037288;28;20410;-64
2022/05/18 06:00:36;;;;;;;8.63;5.53;;;23.00;99.90;;;;;;5022669;28;20048;-64
2022/05/18 06:03:03;;;;;;;6.85;6.15;;;22.90;99.90;;;;;;5033998;28;20045;-64
2022/05/18 06:05:29;;;;;;;8.73;6.03;;;22.80;99.90;;;;;;5085659;22;20186;-64
2022/05/18 06:07:54;;;;;;;8.43;5.60;;;22.90;99.90;;;;;;4991314;28;20042;-64
2022/05/18 06:10:21;;;;;;;9.57;6.22;;;22.90;99.90;;;;;;4989672;28;20045;-64
2022/05/18 06:12:47;;;;;;;8.48;5.47;;;22.80;99.90;;;;;;4988782;28;20064;-64
2022/05/18 06:15:13;;;;;;;8.45;5.35;;;22.90;99.90;;;;;;4990401;28;20037;-64
2022/05/18 06:17:39;;;;;;;10.82;5.88;;;22.90;99.90;;;;;;4990376;28;20042;-64
2022/05/18 06:20:06;;;;;;;7.65;5.57;;;22.80;99.90;;;;;;4989633;28;20095;-64
2022/05/18 06:22:32;;;;;;;11.98;6.10;;;22.90;99.90;;;;;;4993036;28;20052;-64
2022/05/18 06:24:58;;;;;;;6.80;5.55;;;23.10;99.90;;;;;;4983233;28;20029;-64
2022/05/18 06:27:23;;;;;;;8.60;6.00;;;23.20;99.90;;;;;;4987508;28;20045;-64
2022/05/18 06:29:49;;;;;;;10.77;6.30;;;23.30;99.90;;;;;;4988643;28;20065;-64
2022/05/18 06:32:16;;;;;;;9.18;5.65;;;23.50;99.90;;;;;;4991310;28;20041;-64
2022/05/18 06:34:44;;;;;;;10.60;6.00;;;23.60;99.90;;;;;;4989866;28;20073;-64
2022/05/18 06:37:11;;;;;;;8.63;6.07;;;23.90;99.90;;;;;;4991376;28;20080;-64
2022/05/18 06:39:38;;;;;;;7.63;5.55;;;24.10;99.90;;;;;;4989978;28;20573;-64
2022/05/18 06:42:04;;;;;;;12.15;6.82;;;24.30;99.90;;;;;;4987950;28;20752;-64
2022/05/18 06:44:29;;;;;;;13.15;6.82;;;24.40;99.90;;;;;;4972788;28;20050;-64
2022/05/18 06:47:00;;;;;;;11.07;5.88;;;24.60;99.90;;;;;;5005347;28;20056;-64
2022/05/18 06:49:29;;;;;;;7.18;5.95;;;24.80;99.80;;;;;;4988230;28;20034;-64
2022/05/18 06:51:58;;;;;;;7.45;5.55;;;24.80;99.10;;;;;;5005095;28;20072;-64
2022/05/18 06:54:24;;;;;;;9.13;6.15;;;25.00;99.40;;;;;;4989512;28;20049;-64
2022/05/18 06:56:50;;;;;;;8.52;5.40;;;25.00;98.70;;;;;;4991872;28;20393;-64
2022/05/18 06:59:16;;;;;;;8.48;6.40;;;25.10;98.00;;;;;;4989157;28;20052;-64
2022/05/18 07:01:42;;;;;;;11.38;6.03;;;25.10;98.30;;;;;;4990767;28;20042;-64
2022/05/18 07:04:11;;;;;;;9.60;5.63;;;25.20;98.50;;;;;;4989246;28;20095;-64
2022/05/18 07:06:39;;;;;;;10.93;5.95;;;25.30;98.30;;;;;;4990529;28;20091;-64
2022/05/18 07:09:15;;;;;;;9.40;6.10;;;25.20;97.50;;;;;;4990361;28;20088;-64
2022/05/18 07:11:42;;;;;;;10.27;6.18;;;25.30;98.20;;;;;;4987070;28;20088;-64
2022/05/18 07:14:08;;;;;;;7.57;6.35;;;25.40;97.80;;;;;;4992641;28;20930;-64
2022/05/18 07:16:34;;;;;;;14.38;6.75;;;25.40;97.70;;;;;;4987840;28;20120;-64
2022/05/18 07:19:00;;;;;;;10.52;5.90;;;25.40;96.90;;;;;;4988010;28;20064;-64
2022/05/18 07:21:28;;;;;;;13.60;5.88;;;25.40;97.60;;;;;;4990351;28;20134;-64
2022/05/18 07:23:54;;;;;;;8.93;6.00;;;25.40;97.30;;;;;;4988752;28;20038;-64
2022/05/18 07:26:21;;;;;;;6.93;6.03;;;25.40;97.70;;;;;;4992340;28;20045;-64
2022/05/18 07:28:47;;;;;;;11.68;6.28;;;25.50;97.20;;;;;;4995620;28;21251;-64
2022/05/18 07:31:14;;;;;;;7.55;5.85;;;25.60;96.90;;;;;;4995070;28;20097;-64
2022/05/18 07:33:43;;;;;;;12.65;6.40;;;25.60;97.00;;;;;;4993184;28;20053;-64
2022/05/18 07:36:08;;;;;;;10.15;6.32;;;25.70;96.70;;;;;;4995123;28;20496;-64
2022/05/18 07:38:35;;;;;;;7.20;6.28;;;25.80;96.40;;;;;;4995403;28;20042;-64
2022/05/18 07:41:02;;;;;;;8.82;6.22;;;25.80;95.90;;;;;;4992548;28;20077;-64
2022/05/18 07:43:27;;;;;;;10.38;5.60;;;25.80;95.00;;;;;;4994949;28;20090;-64
2022/05/18 07:45:55;;;;;;;12.40;5.88;;;25.90;95.50;;;;;;4994809;28;20033;-64
2022/05/18 07:48:21;;;;;;;9.52;5.70;;;26.00;95.60;;;;;;4994266;28;20049;-64
2022/05/18 07:50:48;;;;;;;10.60;6.93;;;26.20;95.60;;;;;;4994584;28;20042;-65
2022/05/18 07:53:14;;;;;;;7.28;5.88;;;26.40;94.50;;;;;;4995012;28;20041;-64
2022/05/18 07:55:40;;;;;;;9.00;5.60;;;26.50;94.60;;;;;;4996550;28;20442;-64
2022/05/18 07:58:08;;;;;;;14.32;6.35;;;26.50;94.70;;;;;;4996378;28;20038;-64
2022/05/18 08:00:35;;;;;;;10.45;6.18;;;26.60;93.70;;;;;;4992352;28;20104;-64
2022/05/18 08:03:02;;;;;;;13.25;6.05;;;26.50;93.90;;;;;;4993122;28;20053;-64
2022/05/18 08:05:29;;;;;;;9.23;5.97;;;26.60;94.80;;;;;;4993916;28;20056;-64
2022/05/18 08:07:55;;;;;;;9.35;6.68;;;26.70;93.60;;;;;;4994111;28;20037;-64
2022/05/18 08:15:53;;;;;;;12.75;5.82;;;26.50;93.10;;;;;;4992675;28;20057;-64
2022/05/18 08:18:20;;;;;;;11.55;5.85;;;26.60;92.70;;;;;;4993786;28;20053;-65
2022/05/18 08:20:47;;;;;;;7.90;5.00;;;26.80;93.00;;;;;;4992510;28;20038;-64
2022/05/18 08:23:14;;;;;;;18.08;5.97;;;26.80;92.40;;;;;;4994162;28;20490;-64
2022/05/18 08:25:43;;;;;;;6.43;4.60;;;26.90;93.10;;;;;;4992984;28;21106;-64
2022/05/18 08:28:09;;;;;;;9.43;4.00;;;26.90;91.90;;;;;;4996036;28;20053;-65
2022/05/18 08:30:35;;;;;;;15.70;3.90;;;27.10;91.50;;;;;;4993217;28;20042;-64
2022/05/18 08:33:02;;;;;;;9.18;3.88;;;27.20;91.80;;;;;;4992309;28;20041;-64
2022/05/18 08:35:29;;;;;;;6.80;3.83;;;27.30;92.80;;;;;;4992035;28;20390;-65
2022/05/18 08:37:56;;;;;;;9.02;4.00;;;27.50;91.60;;;;;;4994145;28;20054;-64
2022/05/18 08:40:28;;;;;;;9.40;4.13;;;27.60;90.90;;;;;;4993939;28;20122;-65
2022/05/18 08:42:59;;;;;;;11.35;4.18;;;27.70;91.60;;;;;;4992269;28;20092;-64
2022/05/18 08:45:30;;;;;;;14.52;5.53;;;27.80;91.10;;;;;;4994161;28;20049;-65
2022/05/18 08:48:23;;;;;;;15.30;5.03;;;27.80;90.50;;;;;;4993366;28;20736;-65
2022/05/18 08:50:52;;;;;;;5.82;4.43;;;27.90;90.50;;;;;;4990297;28;20693;-65
2022/05/18 08:53:31;;;;;;;9.63;5.20;;;27.80;91.00;;;;;;4994493;28;21931;-64
2022/05/18 08:56:19;;;;;;;6.82;5.53;;;27.90;91.00;;;;;;4993619;28;20044;-64
2022/05/18 08:58:50;;;;;;;7.97;5.15;;;27.90;91.20;;;;;;4992029;28;20068;-64
2022/05/18 09:01:35;;;;;;;13.70;5.35;;;28.10;91.70;;;;;;4991465;28;20055;-64
2022/05/18 09:04:11;;;;;;;6.05;5.45;;;28.10;90.70;;;;;;4992488;28;20057;-64
2022/05/18 09:07:15;;;;;;;9.73;5.50;;;28.30;91.10;;;;;;4992359;28;20104;-64
2022/05/18 09:10:14;;;;;;;18.90;7.55;;;28.40;90.20;;;;;;4949954;28;20038;-64
2022/05/18 09:12:45;;;;;;;9.63;6.03;;;28.40;90.00;;;;;;4987974;28;20413;-65
2022/05/18 09:15:17;;;;;;;10.13;5.72;;;28.30;89.00;;;;;;4992335;28;20157;-64
2022/05/18 09:18:05;;;;;;;8.60;6.88;;;28.20;90.40;;;;;;4992635;28;20042;-64
2022/05/18 09:20:42;;;;;;;7.13;5.47;;;28.40;90.10;;;;;;4987675;28;20057;-65
2022/05/18 09:23:43;;;;;;;7.18;5.72;;;28.50;89.60;;;;;;4995920;28;20096;-64
2022/05/18 09:26:43;;;;;;;10.18;5.97;;;28.60;88.70;;;;;;4970099;28;20527;-64
2022/05/18 09:29:09;;;;;;;12.35;6.25;;;28.70;89.40;;;;;;4975852;28;20050;-65
2022/05/18 09:31:57;;;;;;;7.97;5.97;;;28.80;87.40;;;;;;4990155;28;20069;-64
2022/05/18 09:35:04;;;;;;;11.40;6.03;;;28.70;87.40;;;;;;4988943;28;20958;-65
2022/05/18 09:37:52;;;;;;;6.40;5.05;;;28.70;85.60;;;;;;4990955;28;20050;-65
2022/05/18 09:40:27;;;;;;;9.13;5.95;;;28.70;86.30;;;;;;5004889;28;20049;-65
2022/05/18 09:43:08;;;;;;;16.60;5.47;;;28.70;85.20;;;;;;4990380;28;20046;-64
2022/05/18 09:45:38;;;;;;;9.57;5.20;;;28.70;88.90;;;;;;4989011;28;20152;-64
2022/05/18 09:48:10;;;;;;;9.75;6.25;;;28.90;89.30;;;;;;4989157;28;20061;-64
2022/05/18 09:50:39;;;;;;;15.23;7.32;;;29.10;86.70;;;;;;4989319;28;20484;-65
2022/05/18 09:53:06;;;;;;;8.45;6.22;;;29.10;85.90;;;;;;4990963;28;20046;-65
2022/05/18 09:55:32;;;;;;;10.43;6.65;;;29.10;85.80;;;;;;4991705;28;20099;-65
2022/05/18 09:58:28;;;;;;;9.55;6.13;;;28.90;84.60;;;;;;4989821;28;20057;-65
2022/05/18 10:07:27;;;;;;;10.50;5.70;;;28.90;87.00;;;;;;4987624;28;20373;-64
2022/05/18 10:09:45;;;;;;;13.75;8.00;;;29.30;84.40;;;;;;4993227;28;20050;-65
2022/05/18 10:12:22;;;;;;;13.07;6.90;;;29.40;82.90;;;;;;4992462;28;20046;-65
2022/05/18 10:14:56;;;;;;;12.43;7.28;;;29.30;85.20;;;;;;4993137;28;20048;-65
2022/05/18 10:17:29;;;;;;;14.20;6.72;;;29.20;83.00;;;;;;4992825;28;20041;-65
2022/05/18 10:20:06;;;;;;;16.35;7.45;;;29.20;83.30;;;;;;4992358;28;20053;-65
2022/05/18 10:22:39;;;;;;;11.38;7.70;;;29.10;82.60;;;;;;4993499;28;20077;-65
2022/05/18 10:25:24;;;;;;;14.27;7.97;;;29.10;82.50;;;;;;4993850;28;20073;-64
2022/05/18 10:27:50;;;;;;;16.83;7.63;;;29.10;84.70;;;;;;4990495;28;20591;-64
2022/05/18 10:30:32;;;;;;;14.38;7.10;;;29.30;85.10;;;;;;4993684;28;20048;-65
2022/05/18 10:33:06;;;;;;;11.02;7.22;;;29.50;85.80;;;;;;4992077;28;20729;-65
2022/05/18 10:35:49;;;;;;;13.13;7.27;;;29.50;83.50;;;;;;4992763;28;20081;-65
2022/05/18 10:38:36;;;;;;;9.43;6.90;;;29.60;84.90;;;;;;4994542;28;20381;-65
2022/05/18 10:41:04;;;;;;;10.88;6.72;;;29.80;85.80;;;;;;4993071;28;20049;-65
2022/05/18 10:43:32;;;;;;;14.57;8.13;;;29.90;83.60;;;;;;4991193;28;20106;-65
2022/05/18 10:46:16;;;;;;;11.50;7.35;;;29.90;80.70;;;;;;4994053;28;20061;-65
2022/05/18 10:48:54;;;;;;;14.95;8.50;;;29.70;79.40;;;;;;4993500;28;20038;-65
2022/05/18 10:51:32;;;;;;;14.20;8.00;;;29.60;80.70;;;;;;4992114;28;20077;-65
2022/05/18 10:54:23;;;;;;;14.23;9.32;;;29.70;81.50;;;;;;4992208;28;20172;-65
2022/05/18 10:56:49;;;;;;;8.52;7.43;;;29.80;79.80;;;;;;4994158;28;20088;-65
2022/05/18 10:59:54;;;;;;;10.60;7.18;;;29.80;80.90;;;;;;4992455;28;20096;-65
2022/05/18 11:02:59;;;;;;;21.38;9.13;;;29.90;81.10;;;;;;4994488;28;20140;-65
2022/05/18 11:05:48;;;;;;;12.73;8.45;;;29.90;78.90;;;;;;4992559;28;20112;-64
2022/05/18 11:08:18;;;;;;;13.35;7.68;;;29.80;80.50;;;;;;4993822;28;20045;-64
2022/05/18 11:10:48;;;;;;;12.80;8.57;;;29.70;78.90;;;;;;4995313;28;20040;-64
2022/05/18 11:13:24;;;;;;;13.02;8.50;;;29.70;80.00;;;;;;4995763;28;20077;-64
2022/05/18 11:16:04;;;;;;;9.90;8.43;;;29.70;79.70;;;;;;4994773;28;20435;-64
2022/05/18 11:18:47;;;;;;;14.23;8.98;;;29.80;78.50;;;;;;4993802;28;20033;-64
2022/05/18 11:21:24;;;;;;;14.40;9.07;;;29.70;78.20;;;;;;4992608;28;20070;-64
2022/05/18 11:24:23;;;;;;;25.83;10.20;;;29.50;78.00;;;;;;5010094;28;20084;-64
2022/05/18 11:27:01;;;;;;;11.85;9.52;;;29.60;78.90;;;;;;4980597;28;20065;-64
2022/05/18 11:30:06;;;;;;;12.93;8.32;;;29.70;79.80;;;;;;4995303;28;20034;-63
2022/05/18 11:33:09;;;;;;;23.00;10.48;;;29.80;81.70;;;;;;4993480;28;20061;-65
2022/05/18 11:35:41;;;;;;;12.15;9.50;;;29.70;79.10;;;;;;4990302;28;20037;-63
2022/05/18 11:38:22;;;;;;;13.10;8.82;;;29.40;79.20;;;;;;4987874;28;20042;-63
2022/05/18 11:41:05;;;;;;;12.65;9.00;;;29.30;83.20;;;;;;4987263;28;20046;-63
2022/05/18 11:43:43;;;;;;;12.75;8.70;;;29.30;83.70;;;;;;4991216;28;20092;-63
2022/05/18 11:46:40;;;;;;;13.85;8.43;;;29.40;84.10;;;;;;4992172;28;20046;-63
2022/05/18 11:49:25;;;;;;;11.60;6.32;;;29.50;84.40;;;;;;4993353;28;20058;-63
2022/05/18 11:52:15;;;;;;;11.95;6.72;;;29.40;83.90;;;;;;4993918;28;20045;-63
2022/05/18 11:54:50;;;;;;;8.57;6.25;;;29.30;83.50;;;;;;4990873;28;20152;-63
2022/05/18 11:57:18;;;;;;;;;;;29.10;83.60;;;;;;4992717;28;20042;-63
2022/05/18 12:00:07;;;;;;;10.10;7.60;;;28.90;84.20;;;;;;4994617;28;19918;-63
2022/05/18 12:02:51;;;;;;;12.02;6.00;;;28.70;85.90;;;;;;4993800;28;20140;-63
2022/05/18 12:05:35;;;;;;;18.80;6.40;;;28.60;86.90;;;;;;4994651;28;20487;-63
2022/05/18 12:08:37;;;;;;;9.43;4.53;;;28.50;86.00;;;;;;4992575;28;20188;-63
2022/05/18 12:11:21;;;;;;;8.38;4.30;;;28.20;86.20;;;;;;4989507;28;20042;-63
2022/05/18 12:14:12;;;;;;;5.63;3.28;;;28.00;88.00;;;;;;4992361;28;20387;-63
2022/05/18 12:17:04;;;;;;;6.47;4.07;;;27.80;87.60;;;;;;4995008;28;20042;-63
2022/05/18 12:19:44;;;;;;;10.68;5.30;;;27.80;88.20;;;;;;4992784;28;20049;-63
2022/05/18 12:22:12;;;;;;;5.35;3.97;;;27.90;87.70;;;;;;4992665;28;20053;-63
2022/05/18 12:24:41;;;;;;;7.82;3.63;;;27.90;88.20;;;;;;4988474;28;20038;-63
2022/05/18 12:27:09;;;;;;;8.35;3.40;;;27.90;89.20;;;;;;4990465;28;20496;-63
2022/05/18 12:29:36;;;;;;;11.50;4.15;;;28.20;89.30;;;;;;4993466;28;20049;-63
2022/05/18 12:32:05;;;;;;;6.05;3.70;;;28.30;89.10;;;;;;4989805;28;20083;-63
2022/05/18 12:34:33;;;;;;;9.85;4.32;;;28.40;86.90;;;;;;4995121;28;20049;-63
2022/05/18 12:37:29;;;;;;;9.77;4.75;;;28.30;87.20;;;;;;4990211;28;20158;-63
2022/05/18 12:40:19;;;;;;;8.88;3.80;;;28.10;87.10;;;;;;4991756;28;20128;-63
2022/05/18 12:42:55;;;;;;;6.05;3.38;;;28.00;88.60;;;;;;4988532;28;20050;-64
2022/05/18 12:45:30;;;;;;;7.72;3.75;;;28.20;88.70;;;;;;4991704;28;20692;-63
2022/05/18 12:48:31;;;;;;;4.00;3.20;;;28.40;87.20;;;;;;4990549;28;20057;-63
2022/05/18 12:51:31;;;;;;;5.25;3.35;;;28.60;88.30;;;;;;4974732;28;20288;-63
2022/05/18 12:54:08;;;;;;;8.23;3.30;;;28.90;88.60;;;;;;4990903;28;20065;-63
2022/05/18 12:56:37;;;;;;;4.75;3.35;;;29.20;89.30;;;;;;4977641;28;20038;-63
2022/05/18 12:59:19;;;;;;;6.10;3.42;;;29.20;87.20;;;;;;4990885;28;20767;-63
2022/05/18 13:01:50;;;;;;;6.85;3.83;;;29.20;87.00;;;;;;4990309;28;20133;-63
2022/05/18 13:04:16;;;;;;;6.68;3.70;;;29.20;88.00;;;;;;4990691;28;20052;-63
2022/05/18 13:06:54;;;;;;;12.38;4.15;;;29.30;85.30;;;;;;4974021;28;20049;-63
2022/05/18 13:09:36;;;;;;;7.07;4.45;;;29.40;86.90;;;;;;4989928;28;20147;-64
2022/05/18 13:12:24;;;;;;;9.05;5.40;;;29.60;84.30;;;;;;4989192;28;20437;-63
2022/05/18 13:15:25;;;;;;;8.75;5.03;;;29.50;84.80;;;;;;4989999;28;20042;-63
2022/05/18 13:18:10;;;;;;;12.50;4.78;;;29.30;85.50;;;;;;4993063;28;20136;-63
2022/05/18 13:20:39;;;;;;;6.35;4.80;;;29.30;86.20;;;;;;4991523;28;20084;-63